Time;durP1;ratioP1;P1;durP2;ratioP2;P2;SDS_P1;SDS_P2;PMS_P1;PMS_P2;Temp;Humidity;BMP_temperature;BMP_pressure;BME280_temperature;BME280_humidity;BME280_pressure;Samples;Min_cycle;Max_cycle;Signal;HPM_P1;HPM_P2
2022/09/25 00:00:35;;;;;;;12.13;3.83;;;;;;;12.40;91.73;101765.69;5045535;28;20021;-64
2022/09/25 00:03:01;;;;;;;9.48;3.78;;;;;;;12.36;91.90;101760.47;5039919;28;20383;-64
2022/09/25 00:05:26;;;;;;;10.30;4.03;;;;;;;12.38;91.98;101771.84;5045038;28;20017;-63
2022/09/25 00:07:52;;;;;;;9.38;3.83;;;;;;;12.40;92.26;101773.63;5043671;28;20037;-64
2022/09/25 00:10:17;;;;;;;6.75;4.22;;;;;;;12.38;92.60;101774.50;5044158;28;20531;-64
2022/09/25 00:12:43;;;;;;;8.35;3.42;;;;;;;12.36;92.34;101778.97;5045388;28;20025;-64
2022/09/25 00:15:09;;;;;;;6.90;3.10;;;;;;;12.35;92.37;101771.97;5032078;28;20084;-64
2022/09/25 00:17:34;;;;;;;9.25;2.95;;;;;;;12.35;92.52;101773.72;5025863;28;20040;-64
2022/09/25 00:20:00;;;;;;;11.05;3.90;;;;;;;12.29;92.67;101777.41;5026379;28;20017;-64
2022/09/25 00:22:26;;;;;;;9.75;3.03;;;;;;;12.21;93.00;101776.72;5025821;28;20401;-63
2022/09/25 00:24:52;;;;;;;8.60;3.35;;;;;;;12.08;92.71;101773.53;5025325;28;20014;-64
2022/09/25 00:27:18;;;;;;;13.82;3.45;;;;;;;12.02;93.06;101774.53;5045337;28;20029;-64
2022/09/25 00:29:44;;;;;;;8.35;3.10;;;;;;;12.04;93.18;101783.25;5045030;28;20021;-64
2022/09/25 00:32:10;;;;;;;7.60;2.92;;;;;;;11.96;93.55;101782.59;5028183;28;20087;-64
2022/09/25 00:34:39;;;;;;;6.72;3.30;;;;;;;11.94;93.36;101785.28;5025193;28;20435;-64
2022/09/25 00:37:05;;;;;;;6.18;3.00;;;;;;;11.90;93.47;101778.34;5039697;28;20315;-64
2022/09/25 00:39:31;;;;;;;8.30;3.15;;;;;;;11.86;93.57;101779.31;5044962;28;20233;-64
2022/09/25 00:41:57;;;;;;;4.35;2.90;;;;;;;11.90;93.71;101775.69;5032217;28;20025;-65
2022/09/25 00:44:58;;;;;;;6.85;3.05;;;;;;;11.80;93.79;101782.97;5025335;28;20036;-64
2022/09/25 00:47:51;;;;;;;4.00;2.70;;;;;;;11.72;93.63;101779.66;5025662;28;20033;-64
2022/09/25 00:50:22;;;;;;;5.60;2.70;;;;;;;11.76;93.50;101778.66;5018077;28;20404;-63
2022/09/25 00:52:48;;;;;;;7.97;3.22;;;;;;;11.75;93.16;101780.41;5024568;28;20491;-64
2022/09/25 00:55:14;;;;;;;9.35;3.40;;;;;;;11.70;93.66;101784.09;5024402;28;20025;-65
2022/09/25 00:57:41;;;;;;;7.05;2.97;;;;;;;11.63;94.04;101778.09;5040540;28;20021;-64
2022/09/25 01:00:10;;;;;;;6.30;3.10;;;;;;;11.60;93.53;101784.31;5044415;28;20068;-65
2022/09/25 01:02:40;;;;;;;11.68;3.00;;;;;;;11.57;93.87;101773.81;5044250;28;20485;-65
2022/09/25 01:05:09;;;;;;;9.73;3.35;;;;;;;11.53;93.99;101766.00;5044623;28;20025;-63
2022/09/25 01:07:36;;;;;;;8.48;3.20;;;;;;;11.52;93.73;101769.53;5043809;28;20057;-64
2022/09/25 01:10:03;;;;;;;11.77;3.35;;;;;;;11.46;94.34;101773.19;5043947;28;20112;-64
2022/09/25 01:12:29;;;;;;;10.75;4.00;;;;;;;11.38;94.35;101773.38;5143490;22;20062;-64
2022/09/25 01:14:56;;;;;;;5.00;3.20;;;;;;;11.34;94.30;101775.22;5083845;28;20028;-64
2022/09/25 01:17:26;;;;;;;3.40;2.70;;;;;;;11.28;94.29;101777.97;5074355;28;20375;-64
2022/09/25 01:20:07;;;;;;;4.72;3.00;;;;;;;11.25;94.22;101767.50;5063061;28;20029;-64
2022/09/25 01:23:17;;;;;;;6.30;2.97;;;;;;;11.23;94.35;101769.31;5072674;28;20031;-63
2022/09/25 01:25:53;;;;;;;6.00;3.33;;;;;;;11.38;94.40;101768.94;5021829;28;20040;-65
2022/09/25 01:28:37;;;;;;;9.88;2.88;;;;;;;11.38;94.46;101773.38;5021786;28;20033;-65
2022/09/25 01:31:08;;;;;;;8.63;3.20;;;;;;;11.33;94.64;101769.97;5049193;28;20555;-63
2022/09/25 01:33:37;;;;;;;5.63;3.08;;;;;;;11.27;94.86;101770.09;5078168;28;20055;-62
2022/09/25 01:36:14;;;;;;;7.30;3.17;;;;;;;11.19;94.59;101772.88;5083233;28;20077;-64
2022/09/25 01:38:49;;;;;;;5.55;3.00;;;;;;;11.14;94.54;101782.69;5082737;28;20505;-63
2022/09/25 01:41:19;;;;;;;6.07;3.05;;;;;;;11.09;94.59;101778.38;5083285;28;20046;-64
2022/09/25 01:43:58;;;;;;;9.30;3.17;;;;;;;11.11;94.39;101781.84;5084649;28;20024;-64
2022/09/25 01:46:27;;;;;;;6.75;3.50;;;;;;;11.08;94.35;101776.63;5082015;28;20058;-65
2022/09/25 01:48:56;;;;;;;6.45;3.70;;;;;;;11.09;94.70;101778.38;5083479;28;20020;-64
2022/09/25 01:51:27;;;;;;;11.23;3.92;;;;;;;11.16;94.88;101780.88;5083739;28;20502;-64
2022/09/25 01:54:07;;;;;;;9.98;4.22;;;;;;;11.16;95.41;101775.59;5082040;28;20027;-64
2022/09/25 01:56:49;;;;;;;8.30;3.70;;;;;;;11.24;95.58;101777.19;5084001;28;20466;-65
2022/09/25 01:59:27;;;;;;;6.90;3.67;;;;;;;11.32;96.16;101781.44;5070728;28;20041;-65
2022/09/25 02:01:55;;;;;;;11.55;3.90;;;;;;;11.38;96.36;101773.38;5062099;28;20502;-63
2022/09/25 02:04:25;;;;;;;10.30;4.75;;;;;;;11.35;96.24;101779.56;5069060;28;20479;-64
2022/09/25 02:06:53;;;;;;;10.30;4.82;;;;;;;11.36;96.63;101776.06;5064411;28;20027;-65
2022/09/25 02:09:25;;;;;;;12.73;5.13;;;;;;;11.36;96.46;101769.91;5067743;28;20028;-64
2022/09/25 02:11:55;;;;;;;8.02;4.63;;;;;;;11.52;95.54;101775.69;5083214;28;20048;-64
2022/09/25 02:14:22;;;;;;;9.27;4.82;;;;;;;11.40;95.47;101779.47;5079369;28;20036;-66
2022/09/25 02:16:52;;;;;;;8.82;4.43;;;;;;;11.28;95.70;101766.53;5083336;28;20077;-63
2022/09/25 02:22:23;;;;;;;12.07;5.32;;;;;;;11.27;96.53;101770.09;5082346;28;20043;-65
2022/09/25 02:24:56;;;;;;;8.90;4.43;;;;;;;11.27;96.54;101773.63;5080312;28;20046;-66
2022/09/25 02:27:23;;;;;;;6.93;4.43;;;;;;;11.25;96.55;101763.09;5068101;28;20016;-68
2022/09/25 02:29:48;;;;;;;6.60;4.43;;;;;;;11.29;96.39;101769.16;5065924;28;20116;-65
2022/09/25 02:32:16;;;;;;;7.28;4.50;;;;;;;11.39;96.42;101769.84;5089236;28;20111;-64
2022/09/25 02:34:41;;;;;;;8.52;4.82;;;;;;;11.28;95.89;101772.69;5086333;28;20826;-63
2022/09/25 02:37:15;;;;;;;7.15;4.10;;;;;;;11.19;96.25;101781.69;5076085;28;20021;-63
2022/09/25 02:39:42;;;;;;;6.80;4.40;;;;;;;11.17;95.87;101780.00;5075474;28;20119;-64
2022/09/25 02:42:11;;;;;;;5.50;3.97;;;;;;;11.30;95.61;101796.41;5087579;28;20062;-63
2022/09/25 02:45:04;;;;;;;13.00;4.60;;;;;;;11.38;96.25;101783.94;5084953;28;20024;-63
2022/09/25 02:47:54;;;;;;;8.18;4.03;;;;;;;11.46;96.28;101783.75;5088367;28;20142;-64
2022/09/25 02:50:31;;;;;;;7.28;3.88;;;;;;;11.57;96.11;101778.22;5085830;28;20024;-65
2022/09/25 02:53:07;;;;;;;8.88;4.47;;;;;;;11.59;96.28;101772.00;5067056;28;20478;-64
2022/09/25 02:55:41;;;;;;;10.23;4.75;;;;;;;11.59;96.26;101772.00;5064994;28;20505;-64
2022/09/25 02:58:38;;;;;;;10.20;4.28;;;;;;;11.67;96.63;101774.47;5066839;28;20024;-64
2022/09/25 03:01:05;;;;;;;7.88;4.90;;;;;;;11.73;95.99;101770.81;5065035;28;20060;-63
2022/09/25 03:03:31;;;;;;;11.52;4.18;;;;;;;11.78;96.04;101765.44;5066541;28;20017;-65
2022/09/25 03:05:56;;;;;;;12.25;4.25;;;;;;;11.84;96.13;101773.19;5066176;28;20686;-64
2022/09/25 03:08:40;;;;;;;9.70;4.28;;;;;;;11.88;95.91;101777.50;5086449;28;20028;-64
2022/09/25 03:11:08;;;;;;;9.02;4.38;;;;;;;11.90;96.11;101774.81;5085634;28;20058;-64
2022/09/25 03:13:33;;;;;;;5.40;4.15;;;;;;;11.90;96.14;101780.09;5086825;28;20098;-64
2022/09/25 03:16:05;;;;;;;7.07;4.00;;;;;;;11.95;95.91;101776.44;5086227;28;20473;-63
2022/09/25 03:18:31;;;;;;;8.30;3.60;;;;;;;12.17;95.21;101783.00;5085949;28;20093;-65
2022/09/25 03:20:57;;;;;;;8.23;4.72;;;;;;;12.19;95.48;101781.19;5086642;28;20023;-64
2022/09/25 03:23:23;;;;;;;8.80;3.80;;;;;;;12.29;95.18;101781.81;5072069;28;20386;-65
2022/09/25 03:25:48;;;;;;;9.98;3.58;;;;;;;12.38;94.88;101773.66;5067137;28;20032;-66
2022/09/25 03:28:14;;;;;;;6.47;3.50;;;;;;;12.39;94.84;101764.81;5066390;28;20035;-63
2022/09/25 03:30:40;;;;;;;7.95;3.45;;;;;;;12.40;94.57;101768.31;5066043;28;20028;-63
2022/09/25 03:33:12;;;;;;;7.82;3.28;;;;;;;12.36;94.51;101762.25;5074280;28;20028;-63
2022/09/25 03:35:38;;;;;;;6.90;3.70;;;;;;;12.44;94.17;101755.00;5086776;28;20327;-64
2022/09/25 03:38:03;;;;;;;12.13;3.47;;;;;;;12.44;94.05;101748.81;5085654;28;20118;-64
2022/09/25 03:40:29;;;;;;;6.18;2.58;;;;;;;12.48;94.18;101755.75;5087484;28;20742;-64
2022/09/25 03:42:54;;;;;;;7.65;2.70;;;;;;;12.45;93.95;101745.25;5082345;28;20048;-64
2022/09/25 03:45:19;;;;;;;7.93;2.83;;;;;;;12.47;93.20;101754.91;5066036;28;20025;-64
2022/09/25 03:47:45;;;;;;;5.55;3.13;;;;;;;12.42;93.04;101751.50;5067824;28;20111;-63
2022/09/25 03:50:10;;;;;;;7.65;3.30;;;;;;;12.32;93.29;101753.53;5087722;28;20069;-63
2022/09/25 03:52:35;;;;;;;5.43;2.40;;;;;;;12.23;92.96;101756.41;5086446;28;20024;-62
2022/09/25 03:55:01;;;;;;;7.85;2.83;;;;;;;12.13;92.98;101761.06;5086677;28;20125;-64
2022/09/25 03:57:26;;;;;;;5.57;2.60;;;;;;;12.09;93.24;101752.38;5086022;28;20071;-64
2022/09/25 03:59:52;;;;;;;6.97;2.92;;;;;;;12.03;93.70;101752.47;5074568;28;20085;-64
2022/09/25 04:02:18;;;;;;;5.03;2.58;;;;;;;12.00;93.69;101760.47;5087128;28;20120;-63
2022/09/25 04:04:44;;;;;;;8.27;2.65;;;;;;;12.00;93.50;101755.19;5085512;28;20231;-64
2022/09/25 04:07:10;;;;;;;3.55;2.42;;;;;;;12.01;93.80;101752.50;5086739;28;20387;-64
2022/09/25 04:09:35;;;;;;;5.28;2.50;;;;;;;12.00;94.12;101747.28;5084303;28;20087;-64
2022/09/25 04:12:01;;;;;;;6.30;2.97;;;;;;;11.99;94.43;101745.53;5075585;28;20044;-63
2022/09/25 04:14:26;;;;;;;7.72;3.10;;;;;;;11.94;94.87;101745.66;5075643;28;20035;-63
2022/09/25 04:16:51;;;;;;;6.20;3.13;;;;;;;12.05;94.59;101736.59;5087066;28;20417;-64
2022/09/25 04:19:17;;;;;;;5.07;2.65;;;;;;;12.09;94.65;101736.50;5087120;28;20024;-63
2022/09/25 04:21:42;;;;;;;5.13;2.92;;;;;;;12.05;94.86;101737.47;5086355;28;20236;-63
2022/09/25 04:26:52;;;;;;;4.95;2.60;;;;;;;12.01;93.92;101741.06;5084548;28;20092;-64
2022/09/25 04:29:18;;;;;;;4.25;2.67;;;;;;;11.98;93.98;101735.91;5085398;28;20092;-64
2022/09/25 04:33:44;;;;;;;4.93;2.47;;;;;;;12.00;94.11;101745.50;5086370;28;20581;-64
2022/09/25 04:34:29;;;;;;;7.18;2.72;;;;;;;12.06;94.39;101739.19;5085106;28;20027;-64
2022/09/25 04:36:54;;;;;;;6.70;2.55;;;;;;;11.99;94.30;101733.22;5084006;28;20028;-64
2022/09/25 04:39:19;;;;;;;7.30;3.00;;;;;;;11.96;94.19;101742.97;5085696;28;20024;-64
2022/09/25 04:41:45;;;;;;;6.65;3.00;;;;;;;11.93;94.31;101735.13;5085935;28;20075;-64
2022/09/25 04:44:10;;;;;;;10.50;2.45;;;;;;;11.94;94.14;101736.84;5085151;28;20020;-66
2022/09/25 04:46:37;;;;;;;6.82;2.60;;;;;;;11.87;94.20;101734.38;5085280;28;20056;-63
2022/09/25 04:49:02;;;;;;;6.30;2.30;;;;;;;11.84;94.58;101730.94;5085690;28;20027;-63
2022/09/25 04:51:28;;;;;;;7.97;2.40;;;;;;;11.77;95.01;101727.56;5084236;28;20038;-66
2022/09/25 04:53:55;;;;;;;5.80;2.08;;;;;;;11.78;94.77;101729.34;5085697;28;20016;-64
2022/09/25 04:56:20;;;;;;;5.15;2.33;;;;;;;11.73;95.08;101731.22;5084683;28;20024;-65
2022/09/25 04:58:47;;;;;;;4.65;2.10;;;;;;;11.78;94.70;101733.75;5085963;28;20024;-64
2022/09/25 05:01:12;;;;;;;8.30;2.40;;;;;;;11.75;94.65;101735.53;5077495;28;20517;-64
2022/09/25 05:03:37;;;;;;;6.78;2.15;;;;;;;11.73;94.79;101734.72;5065095;28;20067;-64
2022/09/25 05:06:03;;;;;;;4.85;2.20;;;;;;;11.68;94.82;101733.09;5064309;28;20070;-64
2022/09/25 05:08:28;;;;;;;7.13;2.25;;;;;;;11.70;95.05;101731.28;5065101;28;20040;-65
2022/09/25 05:10:54;;;;;;;5.28;2.40;;;;;;;11.69;95.03;101732.19;5065616;28;20104;-64
2022/09/25 05:13:19;;;;;;;3.35;2.25;;;;;;;11.68;95.41;101736.59;5085846;28;20063;-65
2022/09/25 05:15:44;;;;;;;6.85;2.55;;;;;;;11.69;95.25;101737.47;5084640;28;20036;-65
2022/09/25 05:18:21;;;;;;;6.25;2.50;;;;;;;11.71;95.23;101733.03;5084192;28;20103;-64
2022/09/25 05:20:47;;;;;;;8.00;2.30;;;;;;;11.70;95.48;101733.91;5084847;28;20028;-64
2022/09/25 05:23:13;;;;;;;3.05;1.77;;;;;;;11.69;95.50;101734.84;5084497;28;20031;-64
2022/09/25 05:25:38;;;;;;;7.72;2.53;;;;;;;11.64;95.63;101737.56;5084448;28;20032;-65
2022/09/25 05:28:04;;;;;;;7.10;2.17;;;;;;;11.70;95.41;101736.56;5084081;28;20030;-64
2022/09/25 05:30:31;;;;;;;7.22;2.15;;;;;;;11.73;95.44;101741.75;5082182;28;20056;-65
2022/09/25 05:32:59;;;;;;;2.45;1.88;;;;;;;11.66;95.00;101729.63;5084234;28;20066;-64
2022/09/25 05:35:27;;;;;;;6.83;2.00;;;;;;;11.61;95.30;101738.53;5083282;28;20127;-64
2022/09/25 05:37:52;;;;;;;7.60;2.40;;;;;;;11.53;95.55;101727.28;5071434;28;20290;-64
2022/09/25 05:40:19;;;;;;;5.18;2.60;;;;;;;11.49;95.67;101728.25;5064878;28;20051;-64
2022/09/25 05:42:46;;;;;;;6.53;3.53;;;;;;;11.52;95.81;101729.94;5070404;28;20409;-64
2022/09/25 05:45:13;;;;;;;4.85;2.80;;;;;;;11.54;95.39;101726.38;5084144;28;20028;-64
2022/09/25 05:47:39;;;;;;;5.20;2.90;;;;;;;11.64;95.53;101721.75;5083612;28;20465;-63
2022/09/25 05:50:06;;;;;;;3.75;2.33;;;;;;;11.67;96.18;101720.78;5085163;28;20036;-64
2022/09/25 05:52:31;;;;;;;6.50;2.58;;;;;;;11.74;95.85;101728.53;5082892;28;20041;-64
2022/09/25 05:54:57;;;;;;;6.50;3.25;;;;;;;11.88;96.21;101729.97;5085042;28;20085;-64
2022/09/25 05:57:22;;;;;;;9.07;2.72;;;;;;;11.93;96.85;101727.22;5083890;28;20052;-63
2022/09/25 05:59:48;;;;;;;4.85;3.00;;;;;;;12.09;96.91;101733.88;5082774;28;20029;-64
2022/09/25 06:02:15;;;;;;;6.60;2.88;;;;;;;12.24;97.08;101731.72;5084116;28;20070;-66
2022/09/25 06:04:40;;;;;;;4.80;2.35;;;;;;;12.48;96.64;101740.78;5069096;28;20115;-65
2022/09/25 06:07:05;;;;;;;9.48;2.85;;;;;;;12.58;95.96;101738.72;5063892;28;20478;-65
2022/09/25 06:09:31;;;;;;;7.90;2.45;;;;;;;12.71;96.06;101739.28;5073561;28;20074;-63
2022/09/25 06:11:56;;;;;;;9.05;2.72;;;;;;;12.89;94.73;101740.50;5084292;28;20044;-64
2022/09/25 06:14:21;;;;;;;5.65;2.70;;;;;;;12.96;93.87;101733.25;5074726;28;20390;-65
2022/09/25 06:16:50;;;;;;;7.38;2.95;;;;;;;13.06;93.41;101731.19;5063246;28;20028;-64
2022/09/25 06:19:16;;;;;;;9.07;2.40;;;;;;;13.13;92.97;101738.03;5063714;28;20074;-64
2022/09/25 06:21:42;;;;;;;7.75;2.38;;;;;;;13.24;92.53;101742.13;5064075;28;20077;-63
2022/09/25 06:24:07;;;;;;;9.35;2.20;;;;;;;13.31;91.77;101745.47;5067527;28;20490;-62
2022/09/25 06:26:33;;;;;;;3.92;2.15;;;;;;;13.31;91.26;101741.03;5084102;28;20020;-63
2022/09/25 06:28:59;;;;;;;5.10;2.38;;;;;;;13.38;90.84;101747.88;5082546;28;20107;-63
2022/09/25 06:31:25;;;;;;;6.05;2.00;;;;;;;13.30;90.04;101749.03;5084026;28;20213;-64
2022/09/25 06:33:50;;;;;;;6.55;1.98;;;;;;;13.29;90.22;101756.09;5083810;28;20039;-65
2022/09/25 06:36:16;;;;;;;1.70;1.50;;;;;;;13.40;90.10;101751.31;5084357;28;20035;-64
2022/09/25 06:38:41;;;;;;;7.20;1.95;;;;;;;13.33;89.70;101749.78;5082280;28;20030;-64
2022/09/25 06:41:06;;;;;;;6.82;1.90;;;;;;;13.45;89.84;101753.00;5083270;28;20032;-63
2022/09/25 06:43:32;;;;;;;7.15;2.05;;;;;;;13.45;89.79;101748.53;5083817;28;20039;-63
2022/09/25 06:46:04;;;;;;;4.25;1.75;;;;;;;13.63;89.38;101755.06;5067594;28;20050;-64
2022/09/25 06:48:29;;;;;;;4.72;2.10;;;;;;;13.67;89.67;101752.31;5063369;28;20099;-65
2022/09/25 06:50:56;;;;;;;2.72;1.90;;;;;;;13.70;89.52;101744.28;5061834;28;20514;-64
2022/09/25 06:53:23;;;;;;;6.05;1.92;;;;;;;13.78;89.46;101744.88;5063998;28;20111;-65
2022/09/25 06:55:49;;;;;;;4.82;2.08;;;;;;;13.83;89.41;101742.09;5063264;28;20037;-65
2022/09/25 06:58:18;;;;;;;4.28;1.77;;;;;;;13.94;89.45;101750.53;5064239;28;20053;-64
2022/09/25 07:00:50;;;;;;;6.35;2.50;;;;;;;14.06;88.72;101749.25;5062271;28;20024;-63
2022/09/25 07:06:00;;;;;;;6.65;2.10;;;;;;;14.19;88.42;101743.53;5063343;28;20095;-64
2022/09/25 07:08:26;;;;;;;4.22;2.05;;;;;;;14.27;88.08;101746.81;5063472;28;20021;-65
2022/09/25 07:10:53;;;;;;;8.18;2.05;;;;;;;14.35;88.17;101755.34;5074485;28;20032;-64
2022/09/25 07:13:23;;;;;;;6.85;2.20;;;;;;;14.50;87.78;101748.63;5085206;28;20530;-65
2022/09/25 07:15:59;;;;;;;5.78;1.90;;;;;;;14.49;87.14;101748.66;5086855;28;20036;-64
2022/09/25 07:18:26;;;;;;;4.80;2.00;;;;;;;14.56;87.38;101752.84;5087746;28;20032;-64
2022/09/25 07:20:52;;;;;;;7.68;2.10;;;;;;;14.57;87.55;101749.25;5086936;28;20016;-65
2022/09/25 07:23:19;;;;;;;6.28;2.30;;;;;;;14.58;87.65;101753.66;5087897;28;20050;-64
2022/09/25 07:25:45;;;;;;;5.53;2.05;;;;;;;14.70;87.23;101748.81;5086593;28;20031;-64
2022/09/25 07:28:14;;;;;;;7.78;2.13;;;;;;;14.98;86.50;101754.00;5086743;28;20024;-64
2022/09/25 07:30:40;;;;;;;10.20;2.65;;;;;;;15.16;85.40;101747.09;5085569;28;20125;-64
2022/09/25 07:33:05;;;;;;;10.77;2.95;;;;;;;15.20;85.31;101750.50;5087645;28;20046;-64
2022/09/25 07:35:33;;;;;;;6.60;2.30;;;;;;;15.23;85.09;101750.38;5083169;28;20036;-64
2022/09/25 07:37:58;;;;;;;5.85;2.15;;;;;;;15.26;85.83;101754.72;5067487;28;20016;-64
2022/09/25 07:40:26;;;;;;;5.22;2.05;;;;;;;15.33;85.84;101756.22;5064477;28;20023;-64
2022/09/25 07:42:51;;;;;;;4.85;1.85;;;;;;;15.45;86.02;101759.28;5067667;28;20467;-63
2022/09/25 07:45:17;;;;;;;6.82;1.90;;;;;;;15.57;85.82;101753.50;5066154;28;20027;-63
2022/09/25 07:47:42;;;;;;;8.32;2.42;;;;;;;15.65;85.45;101753.16;5065287;28;20443;-63
2022/09/25 07:50:08;;;;;;;4.88;1.85;;;;;;;15.80;85.13;101746.34;5066447;28;20055;-63
2022/09/25 07:52:33;;;;;;;4.28;1.75;;;;;;;15.85;84.80;101749.69;5077241;28;20055;-64
2022/09/25 07:54:58;;;;;;;8.05;2.00;;;;;;;16.04;84.25;101749.81;5087865;28;20635;-65
2022/09/25 07:57:24;;;;;;;6.65;1.77;;;;;;;16.22;83.36;101744.63;5077135;28;20068;-64
2022/09/25 07:59:49;;;;;;;5.13;1.50;;;;;;;16.38;83.12;101751.94;5064428;28;20021;-65
2022/09/25 08:02:15;;;;;;;10.43;2.10;;;;;;;16.37;83.49;101748.41;5083775;28;20036;-64
2022/09/25 08:04:40;;;;;;;7.50;1.50;;;;;;;16.54;81.60;101742.34;5086371;28;20020;-63
2022/09/25 08:07:06;;;;;;;5.30;1.50;;;;;;;16.62;80.29;101738.47;5072375;28;20028;-64
2022/09/25 08:09:31;;;;;;;8.07;1.63;;;;;;;16.41;81.13;101746.50;5068229;28;20051;-63
2022/09/25 08:11:56;;;;;;;3.80;1.50;;;;;;;16.58;81.29;101743.06;5073090;28;20036;-63
2022/09/25 08:14:22;;;;;;;5.72;1.30;;;;;;;16.76;80.83;101746.69;5070971;28;20027;-63
2022/09/25 08:16:48;;;;;;;8.02;1.75;;;;;;;17.00;79.98;101746.50;5088893;28;20096;-63
2022/09/25 08:19:16;;;;;;;6.15;1.83;;;;;;;17.30;76.87;101750.47;5088818;28;20020;-63
2022/09/25 08:21:42;;;;;;;5.00;1.38;;;;;;;17.09;77.19;101747.00;5088561;28;20120;-64
2022/09/25 08:24:08;;;;;;;6.05;1.10;;;;;;;17.64;74.11;101751.47;5088375;28;20548;-63
2022/09/25 08:26:33;;;;;;;6.97;1.30;;;;;;;17.76;74.18;101755.34;5079601;28;20054;-64
2022/09/25 08:28:59;;;;;;;4.78;1.40;;;;;;;17.76;72.07;101757.16;5067950;28;20383;-63
2022/09/25 08:31:24;;;;;;;4.38;0.95;;;;;;;18.04;71.46;101747.75;5068683;28;20032;-64
2022/09/25 08:33:49;;;;;;;5.00;1.50;;;;;;;17.99;71.57;101748.00;5087710;28;20521;-65
2022/09/25 08:36:16;;;;;;;6.18;1.50;;;;;;;18.04;71.85;101755.75;5088699;28;20115;-64
2022/09/25 08:38:41;;;;;;;6.45;1.25;;;;;;;18.05;71.18;101741.47;5070212;28;20051;-65
2022/09/25 08:41:12;;;;;;;4.75;1.30;;;;;;;18.07;70.15;101752.94;5066748;28;20027;-63
2022/09/25 08:43:47;;;;;;;7.68;1.17;;;;;;;18.14;70.28;101743.72;5081297;28;20024;-64
2022/09/25 08:49:09;;;;;;;7.32;1.40;;;;;;;18.31;70.37;101733.97;5085968;28;20070;-64
2022/09/25 08:51:40;;;;;;;2.55;1.13;;;;;;;18.36;70.58;101745.25;5087035;28;20496;-65
2022/09/25 08:54:06;;;;;;;3.97;1.10;;;;;;;18.71;68.77;101740.75;5081505;28;20356;-64
2022/09/25 08:56:33;;;;;;;3.70;0.85;;;;;;;19.06;67.07;101749.50;5087140;28;20020;-64
2022/09/25 08:59:16;;;;;;;4.53;1.48;;;;;;;18.73;65.52;101737.09;5078260;28;20162;-64
2022/09/25 09:01:45;;;;;;;5.07;1.20;;;;;;;18.66;66.47;101733.88;5067488;28;20420;-64
2022/09/25 09:04:18;;;;;;;;;;;;;;;18.79;65.49;101739.41;5071935;28;20020;-63
2022/09/25 09:06:44;;;;;;;4.03;1.13;;;;;;;18.91;65.31;101737.88;5087506;28;19965;-63
2022/09/25 09:09:18;;;;;;;6.63;1.90;;;;;;;18.72;66.52;101732.69;5085083;28;20063;-64
2022/09/25 09:11:46;;;;;;;5.78;1.30;;;;;;;18.65;66.57;101740.16;5086040;28;20052;-64
2022/09/25 09:14:15;;;;;;;4.57;1.20;;;;;;;18.42;67.38;101734.25;5084742;28;20042;-64
2022/09/25 09:16:59;;;;;;;4.18;1.10;;;;;;;18.27;67.68;101749.25;5066703;28;20060;-62
2022/09/25 09:19:25;;;;;;;3.60;1.10;;;;;;;18.30;67.59;101734.88;5063415;28;20121;-63
2022/09/25 09:21:56;;;;;;;6.15;1.10;;;;;;;18.12;68.11;101745.56;5080045;28;20028;-63
2022/09/25 09:24:33;;;;;;;3.97;1.20;;;;;;;17.91;69.56;101734.19;5084277;28;20394;-68
2022/09/25 09:27:19;;;;;;;7.10;1.50;;;;;;;17.70;70.41;101736.13;5084709;28;20031;-64
2022/09/25 09:30:08;;;;;;;5.22;1.20;;;;;;;17.61;70.92;101740.97;5084256;28;20038;-65
2022/09/25 09:33:10;;;;;;;5.82;1.20;;;;;;;17.59;71.31;101728.66;5063882;28;20044;-63
2022/09/25 09:35:43;;;;;;;6.45;1.52;;;;;;;17.76;70.58;101727.84;5066511;28;20447;-63
2022/09/25 09:38:09;;;;;;;4.63;1.40;;;;;;;17.84;70.81;101732.75;5084174;28;20107;-64
2022/09/25 09:41:01;;;;;;;7.57;1.25;;;;;;;17.93;69.04;101732.31;5081489;28;20565;-62
2022/09/25 09:44:09;;;;;;;7.13;1.27;;;;;;;17.94;68.80;101742.00;5061393;28;20212;-65
2022/09/25 09:46:58;;;;;;;6.45;1.13;;;;;;;18.27;67.04;101740.41;5010114;28;20511;-64
2022/09/25 09:49:36;;;;;;;7.47;1.30;;;;;;;18.30;66.79;101745.56;5062641;28;20040;-63
2022/09/25 09:52:16;;;;;;;4.20;1.10;;;;;;;18.14;67.52;101749.03;5075676;28;20024;-63
2022/09/25 09:55:14;;;;;;;5.07;1.08;;;;;;;18.09;67.31;101743.03;5084071;28;20363;-64
2022/09/25 09:57:44;;;;;;;4.60;0.90;;;;;;;18.09;65.96;101743.03;5071859;28;20089;-63
2022/09/25 10:00:15;;;;;;;3.03;1.02;;;;;;;18.34;65.78;101735.59;5082254;28;20570;-62
2022/09/25 10:03:10;;;;;;;1.95;1.00;;;;;;;18.41;65.74;101737.00;5071021;28;20478;-64
2022/09/25 10:05:40;;;;;;;6.28;0.82;;;;;;;18.63;64.87;101734.03;5062347;28;20013;-63
2022/09/25 10:08:06;;;;;;;5.47;0.85;;;;;;;19.02;62.54;101739.09;5078314;28;20123;-63
2022/09/25 10:10:36;;;;;;;1.63;0.70;;;;;;;19.10;62.83;101728.88;5082139;28;20106;-63
2022/09/25 10:13:05;;;;;;;7.88;2.30;;;;;;;18.95;62.93;101733.22;5069885;28;20041;-63
2022/09/25 10:15:37;;;;;;;5.13;0.90;;;;;;;19.12;61.95;101735.00;5062303;28;20475;-63
2022/09/25 10:18:02;;;;;;;1.95;0.73;;;;;;;19.42;61.14;101733.34;5072521;28;20026;-64
2022/09/25 10:20:51;;;;;;;4.25;0.77;;;;;;;19.82;60.82;101723.00;5084267;28;20024;-64
2022/09/25 10:23:16;;;;;;;;;;;;;;;20.15;56.92;101725.56;5082860;28;20389;-63
2022/09/25 10:25:42;;;;;;;2.05;0.60;;;;;;;20.38;55.54;101723.31;5084148;28;19998;-63
2022/09/25 10:28:31;;;;;;;3.20;0.82;;;;;;;20.58;54.62;101724.72;5083430;28;20039;-63
2022/09/25 10:30:57;;;;;;;3.70;0.65;;;;;;;20.70;54.30;101720.41;5084023;28;20123;-64
2022/09/25 10:33:28;;;;;;;3.70;0.77;;;;;;;20.98;52.66;101720.53;5075404;28;20115;-64
2022/09/25 10:35:55;;;;;;;6.85;0.80;;;;;;;20.76;53.46;101712.00;5062454;28;20521;-64
2022/09/25 10:38:20;;;;;;;5.90;1.00;;;;;;;21.00;52.85;101716.78;5064236;28;20052;-64
2022/09/25 10:40:56;;;;;;;2.00;0.88;;;;;;;20.69;54.26;101714.22;5083974;28;20070;-63
2022/09/25 10:43:25;;;;;;;2.40;0.90;;;;;;;20.17;56.84;101713.81;5082598;28;20025;-63
2022/09/25 10:46:12;;;;;;;2.55;0.95;;;;;;;19.92;56.91;101714.41;5083642;28;20032;-63
2022/09/25 10:51:23;;;;;;;7.47;1.50;;;;;;;19.97;56.92;101711.44;5086346;28;20101;-64
2022/09/25 10:53:50;;;;;;;2.70;1.13;;;;;;;19.75;56.46;101713.59;5087720;28;20043;-62
2022/09/25 10:56:19;;;;;;;4.82;1.60;;;;;;;19.72;56.71;101712.94;5070159;28;20032;-63
2022/09/25 10:59:00;;;;;;;2.42;1.08;;;;;;;19.62;56.49;101708.13;5066873;28;20036;-63
2022/09/25 11:01:34;;;;;;;2.72;1.40;;;;;;;19.67;55.60;101705.19;5071635;28;20031;-63
2022/09/25 11:04:02;;;;;;;2.70;1.30;;;;;;;19.66;56.33;101700.78;5067594;28;20024;-63
2022/09/25 11:06:31;;;;;;;6.75;1.23;;;;;;;19.68;57.26;101702.41;5053211;28;20017;-64
2022/09/25 11:08:57;;;;;;;;;;;;;;;19.42;56.56;101707.47;5068334;28;20029;-63
2022/09/25 11:11:25;;;;;;;4.70;0.82;;;;;;;19.42;56.91;101711.97;5073137;28;19920;-63
2022/09/25 11:13:54;;;;;;;2.63;0.77;;;;;;;19.65;54.93;101694.56;5085930;28;20050;-65
2022/09/25 11:16:19;;;;;;;2.50;0.82;;;;;;;19.36;55.89;101705.16;5081310;28;20170;-63
2022/09/25 11:18:48;;;;;;;2.33;0.63;;;;;;;19.56;56.53;101697.78;5066394;28;20131;-62
2022/09/25 11:21:17;;;;;;;1.60;0.75;;;;;;;19.46;56.31;101697.47;5066151;28;20154;-62
2022/09/25 11:23:55;;;;;;;4.03;0.85;;;;;;;19.53;56.63;101692.59;5067095;28;20121;-63
2022/09/25 11:26:26;;;;;;;1.93;0.90;;;;;;;19.79;56.94;101688.41;5064254;28;20395;-64
2022/09/25 11:28:53;;;;;;;1.92;0.90;;;;;;;19.78;57.22;101689.34;5066907;28;20482;-64
2022/09/25 11:31:45;;;;;;;1.83;0.75;;;;;;;20.24;55.71;101687.56;5065356;28;20020;-63
2022/09/25 11:34:16;;;;;;;1.48;0.75;;;;;;;20.45;54.67;101674.66;5067092;28;20036;-63
2022/09/25 11:36:47;;;;;;;1.27;0.80;;;;;;;20.31;52.95;101671.97;5067827;28;20025;-65
2022/09/25 11:42:27;;;;;;;1.75;0.77;;;;;;;20.84;51.08;101668.66;5083624;28;20340;-64
2022/09/25 11:44:59;;;;;;;3.22;0.85;;;;;;;20.96;51.15;101662.53;5083035;28;20106;-64
2022/09/25 11:47:32;;;;;;;1.15;0.60;;;;;;;21.19;48.91;101668.19;5084664;28;20023;-64
2022/09/25 11:50:01;;;;;;;2.03;0.60;;;;;;;21.20;48.46;101656.50;5086482;28;20378;-64
2022/09/25 11:52:58;;;;;;;1.58;0.68;;;;;;;21.31;48.62;101663.00;5086087;28;20048;-62